Time;durP1;ratioP1;P1;durP2;ratioP2;P2;SDS_P1;SDS_P2;PMS_P1;PMS_P2;Temp;Humidity;BMP_temperature;BMP_pressure;BME280_temperature;BME280_humidity;BME280_pressure;Samples;Min_cycle;Max_cycle;Signal;HPM_P1;HPM_P2
2023/01/09 00:00:28;;;;;;;6.05;2.50;;;7.20;99.90;;;;;;6052884;23;20120;-87
2023/01/09 00:02:54;;;;;;;6.43;2.78;;;7.20;99.90;;;;;;6052190;23;20068;-88
2023/01/09 00:05:20;;;;;;;3.33;2.40;;;7.30;99.90;;;;;;6030338;23;20222;-86
2023/01/09 00:07:48;;;;;;;5.55;2.35;;;7.30;99.90;;;;;;6026532;23;20015;-86
2023/01/09 00:10:14;;;;;;;4.53;2.42;;;7.40;99.90;;;;;;6053236;23;20654;-87
2023/01/09 00:12:40;;;;;;;4.43;2.42;;;7.40;99.90;;;;;;6029937;23;20107;-88
2023/01/09 00:15:06;;;;;;;6.53;2.33;;;7.50;99.90;;;;;;6054319;23;20105;-87
2023/01/09 00:17:32;;;;;;;5.63;2.78;;;7.50;99.90;;;;;;6052544;23;20425;-89
2023/01/09 00:19:58;;;;;;;4.20;2.47;;;7.60;99.90;;;;;;6029752;23;20029;-87
2023/01/09 00:22:23;;;;;;;4.47;2.63;;;7.60;99.90;;;;;;6028598;23;20061;-89
2023/01/09 00:24:49;;;;;;;6.80;2.58;;;7.60;99.90;;;;;;6029482;23;20019;-88
2023/01/09 00:27:15;;;;;;;5.05;2.40;;;7.60;99.90;;;;;;6028706;23;20104;-87
2023/01/09 00:29:41;;;;;;;7.95;2.50;;;7.60;99.90;;;;;;6029938;23;20014;-88
2023/01/09 00:32:09;;;;;;;2.40;1.40;;;7.70;99.90;;;;;;6029658;23;20105;-87
2023/01/09 00:34:36;;;;;;;1.40;0.77;;;7.30;99.90;;;;;;6053435;23;20449;-87
2023/01/09 00:37:03;;;;;;;1.80;0.88;;;7.00;99.90;;;;;;6027923;23;20019;-89
2023/01/09 00:39:29;;;;;;;4.47;1.30;;;6.90;99.90;;;;;;6027623;23;20109;-86
2023/01/09 00:41:57;;;;;;;1.67;0.60;;;6.80;99.90;;;;;;6051960;23;20050;-89
2023/01/09 00:44:48;;;;;;;1.90;0.80;;;6.70;99.90;;;;;;6052991;23;20018;-87
2023/01/09 00:47:20;;;;;;;0.85;0.63;;;6.60;99.90;;;;;;6028055;23;20470;-87
2023/01/09 00:49:46;;;;;;;1.23;0.80;;;6.60;99.90;;;;;;6029229;23;20018;-88
2023/01/09 00:52:13;;;;;;;3.35;0.65;;;6.50;99.90;;;;;;6050438;23;20014;-86
2023/01/09 00:54:40;;;;;;;1.58;0.57;;;6.50;99.90;;;;;;6051427;23;20018;-88
2023/01/09 00:57:07;;;;;;;1.90;0.77;;;6.50;99.90;;;;;;6027434;23;20290;-87
2023/01/09 00:59:32;;;;;;;1.95;0.60;;;6.50;99.90;;;;;;6052212;23;20050;-88
2023/01/09 01:01:58;;;;;;;2.03;0.57;;;6.50;99.90;;;;;;6052259;23;20073;-87
2023/01/09 01:09:55;;;;;;;2.13;0.70;;;6.40;99.90;;;;;;6076471;23;20344;-87
2023/01/09 01:12:20;;;;;;;1.17;0.68;;;6.40;99.90;;;;;;6028109;23;20101;-87
2023/01/09 01:14:46;;;;;;;1.48;0.73;;;6.40;99.90;;;;;;6029146;23;20136;-88
2023/01/09 01:17:12;;;;;;;2.15;1.20;;;6.30;99.90;;;;;;6051375;23;20078;-88
2023/01/09 01:19:37;;;;;;;2.42;1.10;;;6.40;99.90;;;;;;6028283;23;20073;-88
2023/01/09 01:22:03;;;;;;;1.58;0.80;;;6.40;99.90;;;;;;6051018;23;20062;-88
2023/01/09 01:24:29;;;;;;;2.70;1.30;;;6.40;99.90;;;;;;6050808;23;20033;-87
2023/01/09 01:26:55;;;;;;;2.55;1.23;;;6.50;99.90;;;;;;6028250;23;20021;-87
2023/01/09 01:29:20;;;;;;;4.57;1.60;;;6.40;99.90;;;;;;6028396;23;20437;-87
2023/01/09 01:31:51;;;;;;;2.28;1.90;;;6.50;99.90;;;;;;6026242;23;20093;-87
2023/01/09 01:34:16;;;;;;;4.65;2.00;;;6.60;99.90;;;;;;6028067;23;20022;-87
2023/01/09 01:36:42;;;;;;;4.15;2.15;;;6.60;99.90;;;;;;6051681;23;20125;-87
2023/01/09 01:39:07;;;;;;;3.15;2.00;;;6.70;99.90;;;;;;6048815;23;20023;-86
2023/01/09 01:41:33;;;;;;;3.95;2.17;;;6.80;99.90;;;;;;6052383;23;20026;-87
2023/01/09 01:44:02;;;;;;;4.93;2.70;;;6.80;99.90;;;;;;6026756;23;20019;-87
2023/01/09 01:46:29;;;;;;;4.13;2.20;;;6.90;99.90;;;;;;6052021;23;20414;-87
2023/01/09 01:49:08;;;;;;;4.57;1.95;;;6.90;99.90;;;;;;6051496;23;20053;-87
2023/01/09 01:51:39;;;;;;;2.80;1.92;;;7.00;99.90;;;;;;6027711;23;20658;-87
2023/01/09 01:54:12;;;;;;;6.35;2.08;;;7.00;99.90;;;;;;6025504;23;20242;-87
2023/01/09 01:56:55;;;;;;;2.67;1.95;;;7.00;99.90;;;;;;6050020;23;20033;-89
2023/01/09 02:00:01;;;;;;;3.10;2.20;;;7.10;99.90;;;;;;6028678;23;20034;-86
2023/01/09 02:02:31;;;;;;;4.03;2.17;;;7.10;99.90;;;;;;6017096;23;20271;-88
2023/01/09 02:04:58;;;;;;;2.20;1.75;;;7.10;99.90;;;;;;6050571;23;20029;-88
2023/01/09 02:07:24;;;;;;;4.97;1.90;;;7.10;99.90;;;;;;6049150;23;20019;-87
2023/01/09 02:09:51;;;;;;;4.30;2.30;;;7.00;99.90;;;;;;6051975;23;20090;-86
2023/01/09 02:12:22;;;;;;;3.85;2.05;;;7.00;99.90;;;;;;6027544;23;20062;-88
2023/01/09 02:14:53;;;;;;;6.20;2.75;;;7.00;99.90;;;;;;6029214;23;20030;-87
2023/01/09 02:17:46;;;;;;;6.03;2.58;;;6.80;99.90;;;;;;6027228;23;20019;-88
2023/01/09 02:20:28;;;;;;;5.28;2.83;;;6.80;99.90;;;;;;6028392;23;20341;-88
2023/01/09 02:23:13;;;;;;;3.40;2.03;;;6.80;99.90;;;;;;6027019;23;20472;-87
2023/01/09 02:26:03;;;;;;;3.97;2.33;;;6.80;99.90;;;;;;6027464;23;20041;-88
2023/01/09 02:28:53;;;;;;;5.95;2.30;;;6.70;99.90;;;;;;6026613;23;20250;-88
2023/01/09 02:31:38;;;;;;;4.20;2.00;;;6.70;99.90;;;;;;6026987;23;20044;-87
2023/01/09 02:34:25;;;;;;;5.18;2.30;;;6.60;99.90;;;;;;6051758;23;20357;-86
2023/01/09 02:37:23;;;;;;;7.10;2.38;;;6.60;99.90;;;;;;6026303;23;20022;-89
2023/01/09 02:40:08;;;;;;;5.72;2.90;;;6.50;99.90;;;;;;6026923;23;20504;-88
2023/01/09 02:42:36;;;;;;;4.03;1.90;;;6.40;99.90;;;;;;6027545;23;20018;-88
2023/01/09 02:45:02;;;;;;;4.57;2.33;;;6.40;99.90;;;;;;6027910;23;20381;-87
2023/01/09 02:47:30;;;;;;;7.65;2.50;;;6.40;99.90;;;;;;6027551;23;20030;-89
2023/01/09 02:50:01;;;;;;;4.70;2.47;;;6.30;99.90;;;;;;6051948;23;20427;-88
2023/01/09 02:52:58;;;;;;;6.10;2.47;;;6.30;99.90;;;;;;6050266;23;20023;-88
2023/01/09 02:55:55;;;;;;;6.57;2.35;;;6.20;99.90;;;;;;6027156;23;20045;-88
2023/01/09 02:58:33;;;;;;;4.72;2.53;;;6.20;99.90;;;;;;6028159;23;20481;-87
2023/01/09 03:01:15;;;;;;;6.53;2.60;;;6.10;99.90;;;;;;6028524;23;20019;-88
2023/01/09 03:04:02;;;;;;;9.27;2.90;;;6.20;99.90;;;;;;6054003;23;20361;-87
2023/01/09 03:07:00;;;;;;;5.82;2.70;;;6.00;99.90;;;;;;6030124;23;20142;-88
2023/01/09 03:09:30;;;;;;;7.75;3.05;;;6.00;99.90;;;;;;6029109;23;20348;-88
2023/01/09 03:12:08;;;;;;;4.68;2.78;;;5.90;99.90;;;;;;6029817;23;20443;-88
2023/01/09 03:14:36;;;;;;;5.95;2.70;;;6.00;99.90;;;;;;6030323;23;20019;-88
2023/01/09 03:17:08;;;;;;;6.85;3.45;;;5.90;99.90;;;;;;6052636;23;20026;-87
2023/01/09 03:19:34;;;;;;;4.30;2.70;;;5.80;99.90;;;;;;6030027;23;20027;-88
2023/01/09 03:22:00;;;;;;;5.38;2.92;;;5.80;99.90;;;;;;6052349;23;20029;-87
2023/01/09 03:24:26;;;;;;;5.53;2.85;;;5.90;99.90;;;;;;6027546;23;20094;-86
2023/01/09 03:26:53;;;;;;;7.18;3.47;;;5.70;99.90;;;;;;6052207;23;20026;-87
2023/01/09 03:29:20;;;;;;;9.85;3.25;;;5.70;99.90;;;;;;6029743;23;20019;-86
2023/01/09 03:31:51;;;;;;;5.85;3.35;;;5.70;99.90;;;;;;6028180;23;20058;-87
2023/01/09 03:34:17;;;;;;;6.72;3.05;;;5.70;99.90;;;;;;6053443;23;20023;-87
2023/01/09 03:36:43;;;;;;;10.63;3.80;;;5.70;99.90;;;;;;6027598;23;20018;-88
2023/01/09 03:39:08;;;;;;;7.63;3.25;;;5.60;99.90;;;;;;6051101;23;20094;-88
2023/01/09 03:41:34;;;;;;;8.27;3.63;;;5.60;99.90;;;;;;6052667;23;20250;-87
2023/01/09 03:43:59;;;;;;;7.63;3.50;;;5.50;99.90;;;;;;6052269;23;20175;-88
2023/01/09 03:46:25;;;;;;;6.57;3.63;;;5.60;99.90;;;;;;6028927;23;20019;-87
2023/01/09 03:48:51;;;;;;;8.00;3.97;;;5.50;99.90;;;;;;6050800;23;20015;-87
2023/01/09 03:51:16;;;;;;;9.32;3.60;;;5.60;99.90;;;;;;6030056;23;20019;-88
2023/01/09 03:53:42;;;;;;;8.77;4.70;;;5.50;99.90;;;;;;6050810;23;20015;-88
2023/01/09 03:56:08;;;;;;;7.88;4.53;;;5.50;99.90;;;;;;6051687;23;20051;-86
2023/01/09 03:58:33;;;;;;;8.73;4.30;;;5.40;99.90;;;;;;6028946;23;20030;-89
2023/01/09 04:01:01;;;;;;;10.88;4.40;;;5.40;99.90;;;;;;6028454;23;20038;-87
2023/01/09 04:03:27;;;;;;;11.57;4.20;;;5.40;99.90;;;;;;6028073;23;20022;-87
2023/01/09 04:05:53;;;;;;;13.60;5.35;;;5.40;99.90;;;;;;6029008;23;20405;-88
2023/01/09 04:08:21;;;;;;;8.85;4.70;;;5.40;99.90;;;;;;6050633;23;20341;-87
2023/01/09 04:10:49;;;;;;;6.63;4.10;;;5.30;99.90;;;;;;6027598;23;20066;-87
2023/01/09 04:13:15;;;;;;;10.52;4.78;;;5.30;99.90;;;;;;6027181;23;20274;-86
2023/01/09 04:15:40;;;;;;;8.25;5.00;;;5.40;99.90;;;;;;6052163;23;20334;-87
2023/01/09 04:18:06;;;;;;;8.93;4.65;;;5.30;99.90;;;;;;6051037;23;20037;-87
2023/01/09 04:20:33;;;;;;;10.73;4.65;;;5.30;99.90;;;;;;6027091;23;20444;-87
2023/01/09 04:22:59;;;;;;;8.75;5.10;;;5.30;99.90;;;;;;6026847;23;20365;-87
2023/01/09 04:25:25;;;;;;;9.80;4.47;;;5.30;99.90;;;;;;6027135;23;20046;-87
2023/01/09 04:27:54;;;;;;;9.30;4.85;;;5.20;99.90;;;;;;6027364;23;20082;-87
2023/01/09 04:30:19;;;;;;;11.90;4.95;;;5.20;99.90;;;;;;6052713;23;20117;-88
2023/01/09 04:32:45;;;;;;;8.73;5.07;;;5.20;99.90;;;;;;6026228;23;20022;-87
2023/01/09 04:35:11;;;;;;;12.55;5.88;;;5.20;99.90;;;;;;6028361;23;20329;-87
2023/01/09 04:37:38;;;;;;;10.85;5.70;;;5.20;99.90;;;;;;6049222;23;20070;-88
2023/01/09 04:40:09;;;;;;;16.80;5.78;;;5.20;99.90;;;;;;6026237;23;20077;-87
2023/01/09 04:42:35;;;;;;;12.15;5.30;;;5.20;99.90;;;;;;6028147;23;20322;-89
2023/01/09 04:45:00;;;;;;;10.63;5.45;;;5.10;99.90;;;;;;6028929;23;20026;-88
2023/01/09 04:47:26;;;;;;;13.80;6.22;;;5.10;99.90;;;;;;6052291;23;20093;-87
2023/01/09 04:49:52;;;;;;;13.93;6.20;;;5.10;99.90;;;;;;6029621;23;20094;-87
2023/01/09 04:52:20;;;;;;;15.57;6.30;;;5.10;99.90;;;;;;6051988;23;20520;-87
2023/01/09 04:54:46;;;;;;;20.05;7.30;;;5.00;99.90;;;;;;6029449;23;20023;-88
2023/01/09 04:57:11;;;;;;;17.00;6.55;;;5.00;99.90;;;;;;6052725;23;20468;-88
2023/01/09 04:59:37;;;;;;;12.10;7.00;;;5.00;99.90;;;;;;6029293;23;20026;-87
2023/01/09 05:02:03;;;;;;;13.70;6.80;;;5.10;99.90;;;;;;6051547;23;20018;-86
2023/01/09 05:04:29;;;;;;;13.63;6.22;;;5.10;99.90;;;;;;6052587;23;20516;-87
2023/01/09 05:06:54;;;;;;;13.40;6.88;;;5.10;99.90;;;;;;6027465;23;20015;-87
2023/01/09 05:09:21;;;;;;;15.57;7.88;;;5.20;99.90;;;;;;6027077;23;20011;-87
2023/01/09 05:11:49;;;;;;;14.98;8.25;;;5.30;99.90;;;;;;6051450;23;20035;-87
2023/01/09 05:14:15;;;;;;;15.80;8.32;;;5.40;99.90;;;;;;6052230;23;20022;-87
2023/01/09 05:16:41;;;;;;;15.63;8.45;;;5.40;99.90;;;;;;6026009;23;20023;-88
2023/01/09 05:19:06;;;;;;;19.38;8.68;;;5.50;99.90;;;;;;6027721;23;20030;-87
2023/01/09 05:21:32;;;;;;;16.17;8.80;;;5.50;99.90;;;;;;6027792;23;20141;-86
2023/01/09 05:23:58;;;;;;;16.42;8.95;;;5.60;99.90;;;;;;6025118;23;20022;-89
2023/01/09 05:26:23;;;;;;;15.18;9.10;;;5.60;99.90;;;;;;6027940;23;20463;-88
2023/01/09 05:28:50;;;;;;;18.58;10.02;;;5.60;99.90;;;;;;6052059;23;20505;-89
2023/01/09 05:31:16;;;;;;;21.25;11.43;;;5.70;99.90;;;;;;6028958;23;20015;-87
2023/01/09 05:33:42;;;;;;;22.10;11.50;;;5.70;99.90;;;;;;6051798;23;20782;-88
2023/01/09 05:36:08;;;;;;;22.73;11.70;;;5.70;99.90;;;;;;6028413;23;20109;-87
2023/01/09 05:38:33;;;;;;;21.83;11.73;;;5.70;99.90;;;;;;6051539;23;20019;-88
2023/01/09 05:40:59;;;;;;;22.13;12.65;;;5.70;99.90;;;;;;6052524;23;20022;-88
2023/01/09 05:43:25;;;;;;;19.35;12.65;;;5.70;99.90;;;;;;6028820;23;20023;-87
2023/01/09 05:45:50;;;;;;;25.98;14.13;;;5.70;99.90;;;;;;6051893;23;20018;-87
2023/01/09 05:48:16;;;;;;;23.80;13.10;;;5.70;99.90;;;;;;6026999;23;20014;-86
2023/01/09 05:50:44;;;;;;;22.20;13.60;;;5.70;99.90;;;;;;6027942;23;20022;-86
2023/01/09 05:53:10;;;;;;;21.77;14.15;;;5.70;99.90;;;;;;6027038;23;20145;-87
2023/01/09 05:55:36;;;;;;;26.08;15.05;;;5.70;99.90;;;;;;6028041;23;20107;-87
2023/01/09 05:58:01;;;;;;;23.95;14.63;;;5.80;99.90;;;;;;6051664;23;20072;-87
2023/01/09 06:00:27;;;;;;;24.95;15.40;;;5.80;99.90;;;;;;6052197;23;20144;-88
2023/01/09 06:02:52;;;;;;;29.48;15.30;;;5.90;99.90;;;;;;6052399;23;20043;-88
2023/01/09 06:05:18;;;;;;;24.73;15.77;;;5.90;99.90;;;;;;6029261;23;20038;-89
2023/01/09 06:07:44;;;;;;;25.05;15.82;;;5.90;99.90;;;;;;6028066;23;20033;-89
2023/01/09 06:10:14;;;;;;;28.52;15.70;;;5.90;99.90;;;;;;6028267;23;20019;-87
2023/01/09 06:12:47;;;;;;;26.73;17.42;;;5.90;99.90;;;;;;6027384;23;20102;-88
2023/01/09 06:15:14;;;;;;;27.30;14.90;;;6.00;99.90;;;;;;6052806;23;20023;-86
2023/01/09 06:17:43;;;;;;;25.05;15.88;;;6.00;99.90;;;;;;6027165;23;20031;-88
2023/01/09 06:20:10;;;;;;;24.92;15.48;;;6.00;99.90;;;;;;6028581;23;20495;-87
2023/01/09 06:22:36;;;;;;;23.52;14.75;;;6.00;99.90;;;;;;6051599;23;20161;-87
2023/01/09 06:25:03;;;;;;;26.85;15.77;;;6.00;99.90;;;;;;6027000;23;20465;-88
2023/01/09 06:27:28;;;;;;;26.67;15.35;;;5.90;99.90;;;;;;6028020;23;20030;-87
2023/01/09 06:29:57;;;;;;;26.92;16.88;;;5.90;99.90;;;;;;6028717;23;20038;-88
2023/01/09 06:32:23;;;;;;;27.38;15.57;;;5.90;99.90;;;;;;6027597;23;20417;-88
2023/01/09 06:34:48;;;;;;;25.40;14.88;;;5.90;99.90;;;;;;6053279;23;20102;-89
2023/01/09 06:37:14;;;;;;;26.50;15.68;;;5.90;99.90;;;;;;6051465;23;20461;-87
2023/01/09 06:39:40;;;;;;;23.15;15.35;;;5.90;99.90;;;;;;6029597;23;20019;-87
2023/01/09 06:42:05;;;;;;;24.25;15.60;;;5.90;99.90;;;;;;6029291;23;20018;-88
2023/01/09 06:44:32;;;;;;;25.63;16.70;;;5.90;99.90;;;;;;6053840;23;20406;-88
2023/01/09 06:47:00;;;;;;;23.83;15.05;;;5.90;99.90;;;;;;6077170;23;20097;-88
2023/01/09 06:49:26;;;;;;;22.52;15.13;;;5.90;99.90;;;;;;6030366;23;20284;-89
2023/01/09 06:51:52;;;;;;;24.80;14.45;;;5.80;99.90;;;;;;6052899;23;20383;-87
2023/01/09 06:54:18;;;;;;;23.83;14.57;;;5.90;99.90;;;;;;6027727;23;20019;-88
2023/01/09 06:56:44;;;;;;;25.95;14.52;;;5.80;99.90;;;;;;6028891;23;20523;-89
2023/01/09 06:59:10;;;;;;;22.40;14.63;;;5.80;99.90;;;;;;6029666;23;20018;-88
2023/01/09 07:01:38;;;;;;;21.52;14.00;;;5.90;99.90;;;;;;6052339;23;20022;-88
2023/01/09 07:04:05;;;;;;;23.10;14.50;;;5.90;99.90;;;;;;6029335;23;20356;-88
2023/01/09 07:06:30;;;;;;;22.63;14.05;;;5.80;99.90;;;;;;6054459;23;20086;-88
2023/01/09 07:08:56;;;;;;;19.60;13.35;;;5.80;99.90;;;;;;6049599;23;20027;-87
2023/01/09 07:11:22;;;;;;;21.08;13.60;;;5.80;99.90;;;;;;6030234;23;20474;-88
2023/01/09 07:13:47;;;;;;;19.25;12.60;;;5.80;99.90;;;;;;6028506;23;20098;-88
2023/01/09 07:16:13;;;;;;;21.23;12.38;;;5.80;99.90;;;;;;6028524;23;20023;-88
2023/01/09 07:18:39;;;;;;;20.73;12.80;;;5.80;99.90;;;;;;6053360;23;20082;-87
2023/01/09 07:21:05;;;;;;;21.65;12.32;;;5.80;99.90;;;;;;6028197;23;20627;-89
2023/01/09 07:23:32;;;;;;;19.20;11.70;;;5.70;99.90;;;;;;6028578;23;20019;-88
2023/01/09 07:25:59;;;;;;;20.40;11.77;;;5.70;99.90;;;;;;6028866;23;20018;-89
2023/01/09 07:28:27;;;;;;;19.35;11.38;;;5.70;99.90;;;;;;6076880;23;20334;-88
2023/01/09 07:30:52;;;;;;;21.13;10.75;;;5.70;99.90;;;;;;6029799;23;20025;-88
2023/01/09 07:33:18;;;;;;;17.65;10.75;;;5.60;99.90;;;;;;6051337;23;20129;-87
2023/01/09 07:35:43;;;;;;;18.75;10.43;;;5.60;99.90;;;;;;6053121;23;20015;-87
2023/01/09 07:38:12;;;;;;;14.18;9.68;;;5.60;99.90;;;;;;6027782;23;20121;-90
2023/01/09 07:40:38;;;;;;;16.02;9.70;;;5.60;99.90;;;;;;6028919;23;20344;-87
2023/01/09 07:43:04;;;;;;;15.77;9.30;;;5.60;99.90;;;;;;6053405;23;20483;-87
2023/01/09 07:45:29;;;;;;;15.55;9.45;;;5.50;99.90;;;;;;6052917;23;20026;-87
2023/01/09 07:47:58;;;;;;;17.75;10.25;;;5.50;99.90;;;;;;6053275;23;20015;-87
2023/01/09 07:50:23;;;;;;;16.88;9.90;;;5.50;99.90;;;;;;6029208;23;20022;-88
2023/01/09 07:52:49;;;;;;;14.45;8.88;;;5.50;99.90;;;;;;6051647;23;20322;-88
2023/01/09 07:55:15;;;;;;;15.35;9.50;;;5.40;99.90;;;;;;6028966;23;20018;-88
2023/01/09 07:57:40;;;;;;;15.95;8.93;;;5.40;99.90;;;;;;6027758;23;20026;-89
2023/01/09 08:00:09;;;;;;;13.93;8.57;;;5.40;99.90;;;;;;6029324;23;20030;-89
2023/01/09 08:02:35;;;;;;;13.43;9.20;;;5.40;99.90;;;;;;6052259;23;20078;-87
2023/01/09 08:05:02;;;;;;;16.55;10.40;;;5.50;99.90;;;;;;6028387;23;20019;-88
2023/01/09 08:07:28;;;;;;;14.75;9.15;;;5.50;99.90;;;;;;6050959;23;20097;-88
2023/01/09 08:09:56;;;;;;;12.50;9.48;;;5.60;99.90;;;;;;6050868;23;20021;-88
2023/01/09 08:12:22;;;;;;;15.45;9.73;;;5.60;99.90;;;;;;6027341;23;20323;-87
2023/01/09 08:14:48;;;;;;;14.73;10.05;;;5.60;99.90;;;;;;6028467;23;20021;-87
2023/01/09 08:17:13;;;;;;;16.45;9.32;;;5.70;99.90;;;;;;6027182;23;20015;-87
2023/01/09 08:19:39;;;;;;;14.13;8.25;;;5.70;99.90;;;;;;6051865;23;20045;-89
2023/01/09 08:22:05;;;;;;;17.38;8.25;;;5.80;99.90;;;;;;6051101;23;20050;-87
2023/01/09 08:24:31;;;;;;;11.45;7.93;;;5.80;99.90;;;;;;6052254;23;20014;-88
2023/01/09 08:26:57;;;;;;;13.82;8.30;;;5.80;99.90;;;;;;6053248;23;20495;-88
2023/01/09 08:29:23;;;;;;;13.75;8.50;;;5.80;99.90;;;;;;6028968;23;20297;-88
2023/01/09 08:31:49;;;;;;;17.15;8.07;;;5.80;99.90;;;;;;6052847;23;20019;-89
2023/01/09 08:34:15;;;;;;;15.68;7.63;;;5.90;99.90;;;;;;6026722;23;20017;-87
2023/01/09 08:36:40;;;;;;;13.85;7.72;;;5.90;99.90;;;;;;6027445;23;20015;-88
2023/01/09 08:39:06;;;;;;;14.32;7.00;;;5.90;99.90;;;;;;6027185;23;20109;-88
2023/01/09 08:47:05;;;;;;;9.75;6.45;;;6.00;99.90;;;;;;6075700;23;20047;-88
2023/01/09 08:49:44;;;;;;;16.90;6.85;;;6.00;99.90;;;;;;6029188;23;20442;-88
2023/01/09 08:52:25;;;;;;;9.40;5.78;;;6.10;99.90;;;;;;6034494;23;20059;-87
2023/01/09 08:54:51;;;;;;;12.65;6.68;;;6.20;99.90;;;;;;6028275;23;20045;-87
2023/01/09 08:57:20;;;;;;;14.15;6.10;;;6.30;99.90;;;;;;6052063;23;20027;-89
2023/01/09 08:59:48;;;;;;;9.63;5.53;;;6.20;99.90;;;;;;6029676;23;20102;-88
2023/01/09 09:02:14;;;;;;;10.80;5.97;;;6.30;99.90;;;;;;6028765;23;20830;-87
2023/01/09 09:04:40;;;;;;;9.75;5.95;;;6.30;99.90;;;;;;6051284;23;20023;-88
2023/01/09 09:07:06;;;;;;;11.80;5.70;;;6.40;99.90;;;;;;6050727;23;20035;-90
2023/01/09 09:09:32;;;;;;;12.15;6.13;;;6.40;99.90;;;;;;6051830;23;20026;-89
2023/01/09 09:11:57;;;;;;;10.82;5.72;;;6.40;99.90;;;;;;6051575;23;20602;-89
2023/01/09 09:17:11;;;;;;;10.80;5.28;;;6.40;99.90;;;;;;6076053;23;20227;-90
2023/01/09 09:19:38;;;;;;;8.23;4.88;;;6.50;99.90;;;;;;6026775;23;20030;-88
2023/01/09 09:22:04;;;;;;;9.52;6.70;;;6.50;99.90;;;;;;6028080;23;20023;-87
2023/01/09 09:24:29;;;;;;;13.32;5.13;;;6.40;99.90;;;;;;6027772;23;20077;-89
2023/01/09 09:26:55;;;;;;;9.80;4.82;;;6.50;99.90;;;;;;6051259;23;20174;-90
2023/01/09 09:29:21;;;;;;;7.47;4.88;;;6.50;99.90;;;;;;6028441;23;20053;-91
2023/01/09 09:31:49;;;;;;;10.93;5.10;;;6.50;99.90;;;;;;6051897;23;20018;-89
2023/01/09 09:34:15;;;;;;;8.20;4.85;;;6.60;99.90;;;;;;6028144;23;20082;-89
2023/01/09 09:36:41;;;;;;;10.02;5.07;;;6.60;99.90;;;;;;6027735;23;20014;-88
2023/01/09 09:39:09;;;;;;;8.13;4.53;;;6.60;99.90;;;;;;6050639;23;20022;-88
2023/01/09 09:45:41;;;;;;;11.18;4.70;;;6.70;99.90;;;;;;6076682;23;20034;-88
2023/01/09 09:48:15;;;;;;;8.90;5.10;;;6.70;99.90;;;;;;6027868;23;20050;-87
2023/01/09 09:51:02;;;;;;;9.32;4.53;;;6.70;99.90;;;;;;6028188;23;20221;-88
2023/01/09 09:53:40;;;;;;;9.65;4.72;;;6.70;99.90;;;;;;6051345;23;20022;-89
2023/01/09 09:56:13;;;;;;;10.32;4.85;;;6.80;99.90;;;;;;6051239;23;20428;-88
2023/01/09 09:58:39;;;;;;;7.75;4.45;;;6.80;99.90;;;;;;6028615;23;20030;-89
2023/01/09 10:01:11;;;;;;;8.68;4.90;;;6.90;99.90;;;;;;6052021;23;20441;-88
2023/01/09 10:03:44;;;;;;;11.85;4.47;;;6.90;99.90;;;;;;6028421;23;20519;-89
2023/01/09 10:06:27;;;;;;;10.73;4.60;;;6.90;99.90;;;;;;6027743;23;20019;-89
2023/01/09 10:09:08;;;;;;;6.85;4.50;;;7.00;99.90;;;;;;6025861;23;20093;-89
2023/01/09 10:12:02;;;;;;;8.07;4.55;;;7.00;99.90;;;;;;6051150;23;20042;-89
2023/01/09 10:14:31;;;;;;;8.55;4.38;;;7.00;99.90;;;;;;6030720;23;20101;-87
2023/01/09 10:17:34;;;;;;;8.52;4.60;;;7.00;99.90;;;;;;6053288;23;20030;-87
2023/01/09 10:20:21;;;;;;;6.57;4.28;;;7.10;99.90;;;;;;5974574;23;20032;-89
2023/01/09 10:22:52;;;;;;;9.93;4.35;;;7.10;99.90;;;;;;5972915;23;20036;-89
2023/01/09 10:25:35;;;;;;;7.88;4.13;;;7.10;99.90;;;;;;5973669;23;20099;-89
2023/01/09 10:28:24;;;;;;;8.18;3.85;;;7.20;99.90;;;;;;5973477;23;20015;-88
2023/01/09 10:30:52;;;;;;;9.80;4.43;;;7.10;99.90;;;;;;5974255;23;20410;-89
2023/01/09 10:33:37;;;;;;;8.32;4.30;;;7.10;99.90;;;;;;5996514;23;20020;-88
2023/01/09 10:36:23;;;;;;;7.43;4.17;;;7.20;99.90;;;;;;5974213;23;20103;-88
2023/01/09 10:38:54;;;;;;;9.63;4.30;;;7.20;99.90;;;;;;5972897;23;20079;-88
2023/01/09 10:41:33;;;;;;;7.68;4.57;;;7.20;99.90;;;;;;5973545;23;20026;-88
2023/01/09 10:44:36;;;;;;;8.45;4.05;;;7.20;99.90;;;;;;5973400;23;20020;-89
2023/01/09 10:47:07;;;;;;;8.65;4.32;;;7.20;99.90;;;;;;5995939;23;20031;-87
2023/01/09 10:49:37;;;;;;;8.70;4.63;;;7.20;99.90;;;;;;5974285;23;20015;-87
2023/01/09 10:52:11;;;;;;;7.82;4.85;;;7.20;99.90;;;;;;5973469;23;20023;-88
2023/01/09 10:54:44;;;;;;;6.22;4.32;;;7.20;99.90;;;;;;5972903;23;20565;-89
2023/01/09 10:57:15;;;;;;;8.73;4.65;;;7.20;99.90;;;;;;5973237;23;20047;-90
2023/01/09 10:59:41;;;;;;;7.97;4.38;;;7.20;99.90;;;;;;5973142;23;20118;-88
2023/01/09 11:02:32;;;;;;;9.68;4.70;;;7.20;99.90;;;;;;5973609;23;20034;-88
2023/01/09 11:04:58;;;;;;;7.85;4.43;;;7.20;99.90;;;;;;5996869;23;20052;-88
2023/01/09 11:07:29;;;;;;;9.10;4.90;;;7.30;99.90;;;;;;5972439;23;20095;-90
2023/01/09 11:10:08;;;;;;;10.30;4.88;;;7.30;99.90;;;;;;5996546;23;20016;-88
2023/01/09 11:12:35;;;;;;;8.45;4.78;;;7.30;99.90;;;;;;5972106;23;20012;-89
2023/01/09 11:15:19;;;;;;;8.30;5.03;;;7.40;99.90;;;;;;5974233;23;20019;-88
2023/01/09 11:17:46;;;;;;;8.07;4.72;;;7.40;99.90;;;;;;5983448;23;20078;-88
2023/01/09 11:20:16;;;;;;;9.10;4.78;;;7.40;99.90;;;;;;6029894;23;20033;-88
2023/01/09 11:22:48;;;;;;;8.98;4.43;;;7.40;99.90;;;;;;6025183;23;20304;-88
2023/01/09 11:25:16;;;;;;;7.75;5.13;;;7.40;99.90;;;;;;6029391;23;20062;-89
2023/01/09 11:27:42;;;;;;;10.43;4.82;;;7.40;99.90;;;;;;6030472;23;20400;-87
2023/01/09 11:30:25;;;;;;;7.35;4.47;;;7.40;99.90;;;;;;6032230;23;20125;-89
2023/01/09 11:32:56;;;;;;;8.77;4.93;;;7.40;99.90;;;;;;6054676;23;20145;-88
2023/01/09 11:35:30;;;;;;;9.15;5.00;;;7.40;99.90;;;;;;6030519;23;20029;-88
2023/01/09 11:38:16;;;;;;;9.00;4.82;;;7.30;99.90;;;;;;6053564;23;20419;-88
2023/01/09 11:40:51;;;;;;;6.38;4.35;;;7.30;99.90;;;;;;6026332;23;20023;-88
2023/01/09 11:43:39;;;;;;;10.70;4.90;;;7.30;99.90;;;;;;6023169;23;20107;-89
2023/01/09 11:46:07;;;;;;;8.68;4.95;;;7.30;99.90;;;;;;6030527;23;20078;-89
2023/01/09 11:48:40;;;;;;;7.55;4.65;;;7.40;99.90;;;;;;6029937;23;20025;-90
2023/01/09 11:51:18;;;;;;;7.93;5.60;;;7.50;99.90;;;;;;6030647;23;20265;-89
2023/01/09 11:53:53;;;;;;;8.95;5.05;;;7.60;99.90;;;;;;6030167;23;20062;-88
2023/01/09 11:56:19;;;;;;;9.60;5.20;;;7.60;99.90;;;;;;6029660;23;20459;-89
2023/01/09 11:58:45;;;;;;;13.73;5.30;;;7.70;99.90;;;;;;6054788;23;20262;-87
2023/01/09 12:01:32;;;;;;;11.98;5.00;;;7.70;99.90;;;;;;6053787;23;20163;-87
2023/01/09 12:04:23;;;;;;;7.28;4.90;;;7.80;99.90;;;;;;6031457;23;20050;-87
2023/01/09 12:07:27;;;;;;;10.68;5.28;;;7.70;99.90;;;;;;6030500;23;20457;-88
2023/01/09 12:10:15;;;;;;;8.73;5.03;;;7.70;99.90;;;;;;6029289;23;20015;-89
2023/01/09 12:13:08;;;;;;;10.38;4.88;;;7.60;99.90;;;;;;6054148;23;20212;-88
2023/01/09 12:16:00;;;;;;;8.57;5.13;;;7.60;99.90;;;;;;6030591;23;20251;-88
2023/01/09 12:18:49;;;;;;;6.50;5.20;;;7.60;99.90;;;;;;6030013;23;20433;-89
2023/01/09 12:21:31;;;;;;;8.32;4.88;;;7.60;99.90;;;;;;6029608;23;20457;-88
2023/01/09 12:24:18;;;;;;;8.73;5.38;;;7.60;99.90;;;;;;6029454;23;20515;-91
2023/01/09 12:27:42;;;;;;;9.85;5.65;;;7.50;99.90;;;;;;6030207;23;20054;-88
2023/01/09 12:30:20;;;;;;;11.85;6.13;;;7.50;99.90;;;;;;5972039;23;20020;-89
2023/01/09 12:33:00;;;;;;;8.60;5.57;;;7.40;99.90;;;;;;5994775;23;20171;-89
2023/01/09 12:35:34;;;;;;;9.52;6.07;;;7.40;99.90;;;;;;5999546;23;20014;-88
2023/01/09 12:38:01;;;;;;;9.18;5.60;;;7.50;99.90;;;;;;6029737;23;20177;-88
2023/01/09 12:40:38;;;;;;;11.45;5.60;;;7.50;99.90;;;;;;6054630;23;20022;-88
2023/01/09 12:43:22;;;;;;;9.35;5.95;;;7.50;99.90;;;;;;6054519;23;20023;-89
2023/01/09 12:45:47;;;;;;;9.10;6.05;;;7.50;99.90;;;;;;6055202;23;20029;-89
2023/01/09 12:48:39;;;;;;;11.68;6.85;;;7.60;99.90;;;;;;6031075;23;20402;-89
2023/01/09 12:51:35;;;;;;;10.90;6.22;;;7.60;99.90;;;;;;6054856;23;20047;-88
2023/01/09 12:54:25;;;;;;;;;;;7.60;99.90;;;;;;6029903;23;20011;-89
2023/01/09 12:56:59;;;;;;;11.38;6.03;;;7.70;99.90;;;;;;6053094;23;19918;-89
2023/01/09 12:59:40;;;;;;;11.32;6.50;;;7.60;99.90;;;;;;6031376;23;20025;-88
2023/01/09 13:02:15;;;;;;;10.80;6.35;;;7.60;99.90;;;;;;6030572;23;20021;-88
2023/01/09 13:04:53;;;;;;;;;;;7.60;99.90;;;;;;6031590;23;20037;-90
2023/01/09 13:07:49;;;;;;;13.27;6.60;;;7.60;99.90;;;;;;6054460;23;20218;-89
2023/01/09 13:10:38;;;;;;;11.98;7.43;;;7.60;99.90;;;;;;6054549;23;20666;-88
2023/01/09 13:13:19;;;;;;;10.02;7.25;;;7.80;99.90;;;;;;6030201;23;20312;-88
2023/01/09 13:15:55;;;;;;;9.13;6.60;;;7.80;99.90;;;;;;6030674;23;20019;-89
2023/01/09 13:18:40;;;;;;;12.30;6.65;;;7.80;99.90;;;;;;6030848;23;20101;-88
2023/01/09 13:21:13;;;;;;;10.60;7.20;;;7.70;99.90;;;;;;6055606;23;20097;-88
2023/01/09 13:24:06;;;;;;;9.65;7.03;;;7.70;99.90;;;;;;6029390;23;20018;-88
2023/01/09 13:26:38;;;;;;;11.07;7.40;;;7.70;99.90;;;;;;6031341;23;20026;-89
2023/01/09 13:29:24;;;;;;;12.80;7.25;;;7.70;99.90;;;;;;6030775;23;20022;-88